Time;durP1;ratioP1;P1;durP2;ratioP2;P2;SDS_P1;SDS_P2;PMS_P1;PMS_P2;Temp;Humidity;BMP_temperature;BMP_pressure;BME280_temperature;BME280_humidity;BME280_pressure;Samples;Min_cycle;Max_cycle;Signal;HPM_P1;HPM_P2
2023/05/12 00:00:56;;;;;;;18.43;8.93;;;10.30;99.90;;;;;;5033457;28;20400;-72
2023/05/12 00:03:22;;;;;;;14.27;7.97;;;10.30;99.90;;;;;;5040766;28;20044;-72
2023/05/12 00:05:48;;;;;;;16.75;7.82;;;10.30;99.90;;;;;;5044323;28;20430;-72
2023/05/12 00:08:14;;;;;;;16.70;7.93;;;10.30;99.90;;;;;;5041022;28;20329;-72
2023/05/12 00:10:40;;;;;;;13.47;7.10;;;10.30;99.90;;;;;;5047239;28;20377;-72
2023/05/12 00:13:07;;;;;;;15.23;7.57;;;10.30;99.90;;;;;;5024879;28;20049;-72
2023/05/12 00:15:33;;;;;;;13.65;7.45;;;10.30;99.90;;;;;;5033509;28;20090;-72
2023/05/12 00:17:59;;;;;;;14.00;7.90;;;10.30;99.90;;;;;;5031110;28;20128;-72
2023/05/12 00:20:24;;;;;;;11.70;6.53;;;10.30;99.90;;;;;;5033582;28;20038;-72
2023/05/12 00:22:50;;;;;;;19.27;8.20;;;10.30;99.90;;;;;;5033096;28;20471;-72
2023/05/12 00:25:16;;;;;;;16.77;8.20;;;10.30;99.90;;;;;;5044963;28;20424;-72
2023/05/12 00:27:42;;;;;;;13.87;7.37;;;10.30;99.90;;;;;;5049652;28;20132;-72
2023/05/12 00:30:08;;;;;;;15.37;7.17;;;10.30;99.90;;;;;;5036374;28;20050;-72
2023/05/12 00:32:34;;;;;;;11.50;6.57;;;10.30;99.90;;;;;;5028795;28;20041;-72
2023/05/12 00:34:59;;;;;;;13.67;6.30;;;10.30;99.90;;;;;;5033104;28;20051;-72
2023/05/12 00:37:25;;;;;;;10.10;5.77;;;10.30;99.90;;;;;;5049894;28;20087;-72
2023/05/12 00:39:50;;;;;;;8.67;4.73;;;10.40;99.90;;;;;;5031567;28;20041;-72
2023/05/12 00:42:16;;;;;;;8.80;4.43;;;10.30;99.90;;;;;;5023199;28;20472;-72
2023/05/12 00:44:42;;;;;;;6.80;3.50;;;10.30;99.90;;;;;;5030505;28;20033;-72
2023/05/12 00:47:08;;;;;;;6.63;3.60;;;10.30;99.90;;;;;;5046900;28;20103;-72
2023/05/12 00:49:34;;;;;;;7.97;3.70;;;10.30;99.90;;;;;;5032323;28;20041;-72
2023/05/12 00:52:02;;;;;;;7.30;3.23;;;10.30;99.90;;;;;;5048125;28;20463;-72
2023/05/12 00:54:28;;;;;;;10.20;3.65;;;10.30;99.90;;;;;;5031711;28;20295;-72
2023/05/12 00:56:54;;;;;;;7.05;3.97;;;10.30;99.90;;;;;;5038706;28;20042;-72
2023/05/12 00:59:20;;;;;;;5.70;3.53;;;10.30;99.90;;;;;;5031616;28;20431;-72
2023/05/12 01:01:48;;;;;;;8.47;4.10;;;10.30;99.90;;;;;;5038609;28;20045;-72
2023/05/12 01:04:13;;;;;;;8.70;4.20;;;10.30;99.90;;;;;;5027183;28;20073;-72
2023/05/12 01:06:48;;;;;;;7.87;4.93;;;10.40;99.90;;;;;;5044454;28;20697;-72
2023/05/12 01:09:14;;;;;;;11.18;5.43;;;10.40;99.90;;;;;;5027520;28;20037;-72
2023/05/12 01:11:40;;;;;;;9.77;5.57;;;10.40;99.90;;;;;;5045148;28;20104;-72
2023/05/12 01:14:06;;;;;;;12.23;5.90;;;10.40;99.90;;;;;;5031840;28;20118;-72
2023/05/12 01:16:39;;;;;;;11.43;6.17;;;10.40;99.90;;;;;;5032330;28;20044;-72
2023/05/12 01:19:13;;;;;;;14.23;7.32;;;10.40;99.90;;;;;;5029493;28;20048;-72
2023/05/12 01:21:39;;;;;;;14.50;7.87;;;10.40;99.90;;;;;;5046413;28;20310;-72
2023/05/12 01:24:08;;;;;;;15.43;8.60;;;10.40;99.90;;;;;;5023812;28;20388;-72
2023/05/12 01:26:34;;;;;;;18.98;9.40;;;10.40;99.90;;;;;;5043990;28;20045;-72
2023/05/12 01:29:03;;;;;;;18.50;9.45;;;10.40;99.90;;;;;;5048779;28;20536;-72
2023/05/12 01:31:29;;;;;;;20.97;9.77;;;10.40;99.90;;;;;;5037108;28;20040;-72
2023/05/12 01:33:55;;;;;;;20.03;9.33;;;10.40;99.90;;;;;;5025163;28;20708;-72
2023/05/12 01:36:21;;;;;;;17.70;9.27;;;10.50;99.90;;;;;;5025517;28;20290;-72
2023/05/12 01:38:46;;;;;;;24.13;11.30;;;10.40;99.90;;;;;;5048403;28;20450;-72
2023/05/12 01:41:12;;;;;;;24.43;12.10;;;10.50;99.90;;;;;;5027942;28;20048;-72
2023/05/12 01:43:38;;;;;;;25.70;12.70;;;10.50;99.90;;;;;;5039045;28;20175;-72
2023/05/12 01:46:03;;;;;;;29.43;12.37;;;10.50;99.90;;;;;;5046918;28;20048;-72
2023/05/12 01:48:29;;;;;;;31.33;13.00;;;10.50;99.90;;;;;;5042592;28;20393;-72
2023/05/12 01:50:55;;;;;;;21.13;12.23;;;10.50;99.90;;;;;;5038500;28;20041;-72
2023/05/12 01:53:20;;;;;;;25.93;13.70;;;10.50;99.90;;;;;;5031714;28;20127;-72
2023/05/12 01:55:46;;;;;;;27.27;14.00;;;10.40;99.90;;;;;;5044839;28;20045;-72
2023/05/12 01:58:12;;;;;;;28.73;13.73;;;10.50;99.90;;;;;;5030152;28;20529;-72
2023/05/12 02:00:37;;;;;;;26.53;14.37;;;10.50;99.90;;;;;;5024244;28;20053;-72
2023/05/12 02:03:03;;;;;;;29.00;13.43;;;10.50;99.90;;;;;;5044879;28;20099;-72
2023/05/12 02:05:29;;;;;;;29.80;15.07;;;10.50;99.90;;;;;;5027761;28;20037;-72
2023/05/12 02:07:54;;;;;;;29.60;15.43;;;10.50;99.90;;;;;;5038546;28;20770;-73
2023/05/12 02:10:20;;;;;;;28.97;15.77;;;10.50;99.90;;;;;;5025911;28;20106;-72
2023/05/12 02:12:46;;;;;;;32.90;16.03;;;10.50;99.90;;;;;;5041343;28;20040;-71
2023/05/12 02:15:12;;;;;;;36.50;17.10;;;10.50;99.90;;;;;;5027648;28;20290;-71
2023/05/12 02:17:38;;;;;;;33.03;16.80;;;10.50;99.90;;;;;;5012891;28;20044;-71
2023/05/12 02:20:04;;;;;;;35.63;17.17;;;10.50;99.90;;;;;;5043613;28;20042;-71
2023/05/12 02:22:29;;;;;;;34.07;17.10;;;10.50;99.90;;;;;;5026752;28;20037;-71
2023/05/12 02:24:55;;;;;;;39.20;16.93;;;10.50;99.90;;;;;;5040826;28;20419;-71
2023/05/12 02:27:21;;;;;;;32.80;15.63;;;10.50;99.90;;;;;;5029042;28;20135;-71
2023/05/12 02:29:47;;;;;;;31.37;15.47;;;10.50;99.90;;;;;;5015301;28;20072;-71
2023/05/12 02:32:12;;;;;;;31.27;15.30;;;10.50;99.90;;;;;;5029411;28;20033;-71
2023/05/12 02:34:38;;;;;;;32.10;15.33;;;10.60;99.90;;;;;;5027122;28;20394;-71
2023/05/12 02:37:04;;;;;;;35.13;16.53;;;10.50;99.90;;;;;;5029143;28;20131;-71
2023/05/12 02:39:29;;;;;;;38.73;16.33;;;10.60;99.90;;;;;;5028410;28;20040;-71
2023/05/12 02:41:55;;;;;;;39.40;17.70;;;10.60;99.90;;;;;;5044316;28;20061;-71
2023/05/12 02:44:21;;;;;;;37.00;16.87;;;10.60;99.90;;;;;;5041346;28;20080;-71
2023/05/12 02:46:47;;;;;;;42.10;17.63;;;10.60;99.90;;;;;;5044679;28;20045;-71
2023/05/12 02:49:12;;;;;;;41.87;18.93;;;10.60;99.90;;;;;;5024998;28;20405;-71
2023/05/12 02:51:38;;;;;;;49.50;21.03;;;10.60;99.90;;;;;;5028205;28;20102;-71
2023/05/12 02:54:04;;;;;;;49.53;20.30;;;10.60;99.90;;;;;;5026721;28;20051;-71
2023/05/12 02:56:30;;;;;;;49.93;20.33;;;10.60;99.90;;;;;;5020955;28;20388;-71
2023/05/12 02:58:55;;;;;;;47.87;21.03;;;10.70;99.90;;;;;;5027708;28;20303;-71
2023/05/12 03:01:21;;;;;;;49.93;21.77;;;10.70;99.90;;;;;;5042363;28;20122;-71
2023/05/12 03:03:47;;;;;;;49.13;21.80;;;10.70;99.90;;;;;;5045868;28;20036;-71
2023/05/12 03:06:12;;;;;;;47.80;21.00;;;10.70;99.90;;;;;;5030716;28;20566;-71
2023/05/12 03:08:38;;;;;;;52.47;21.63;;;10.70;99.90;;;;;;5030239;28;20070;-71
2023/05/12 03:11:04;;;;;;;48.70;21.77;;;10.70;99.90;;;;;;5045662;28;20033;-71
2023/05/12 03:13:30;;;;;;;52.63;21.77;;;10.70;99.90;;;;;;5030380;28;20485;-71
2023/05/12 03:15:59;;;;;;;54.60;21.83;;;10.70;99.90;;;;;;5047059;28;20382;-71
2023/05/12 03:18:26;;;;;;;51.10;21.57;;;10.80;99.90;;;;;;5047048;28;20451;-71
2023/05/12 03:20:52;;;;;;;50.67;22.13;;;10.80;99.90;;;;;;5045023;28;20306;-71
2023/05/12 03:23:18;;;;;;;51.63;22.17;;;10.80;99.90;;;;;;5027736;28;20287;-71
2023/05/12 03:25:43;;;;;;;53.07;22.77;;;10.80;99.90;;;;;;5027515;28;20045;-71
2023/05/12 03:28:09;;;;;;;54.17;21.73;;;10.80;99.90;;;;;;5033677;28;20057;-71
2023/05/12 03:30:35;;;;;;;52.83;23.10;;;10.80;99.90;;;;;;5046962;28;20041;-71
2023/05/12 03:33:00;;;;;;;58.63;22.53;;;10.80;99.90;;;;;;5050601;28;20037;-71
2023/05/12 03:35:26;;;;;;;52.00;22.83;;;10.80;99.90;;;;;;5049209;28;20475;-71
2023/05/12 03:37:52;;;;;;;49.60;23.10;;;10.90;99.90;;;;;;5032180;28;20037;-71
2023/05/12 03:40:18;;;;;;;51.37;22.43;;;10.90;99.90;;;;;;5033762;28;20489;-71
2023/05/12 03:42:44;;;;;;;55.17;22.40;;;10.90;99.90;;;;;;5027771;28;20055;-71
2023/05/12 03:45:11;;;;;;;51.43;22.90;;;10.90;99.90;;;;;;5019693;28;20037;-71
2023/05/12 03:47:37;;;;;;;51.43;22.50;;;10.90;99.90;;;;;;5047689;28;20389;-72
2023/05/12 03:50:03;;;;;;;53.63;22.70;;;11.00;99.90;;;;;;5033097;28;20307;-72
2023/05/12 03:52:28;;;;;;;54.40;22.40;;;11.00;99.90;;;;;;5032603;28;20287;-72
2023/05/12 03:54:54;;;;;;;56.80;24.33;;;11.00;99.90;;;;;;5030580;28;20044;-72
2023/05/12 03:57:20;;;;;;;63.87;24.03;;;11.00;99.90;;;;;;5050141;28;20512;-72
2023/05/12 03:59:45;;;;;;;58.93;23.83;;;11.10;99.90;;;;;;5033154;28;20049;-72
2023/05/12 04:02:11;;;;;;;57.27;24.83;;;11.10;99.90;;;;;;5025402;28;20060;-72
2023/05/12 04:04:37;;;;;;;65.10;26.17;;;11.10;99.90;;;;;;5033588;28;20052;-72
2023/05/12 04:07:04;;;;;;;60.20;25.37;;;11.20;99.90;;;;;;5050136;28;20287;-72
2023/05/12 04:09:32;;;;;;;61.93;25.73;;;11.20;99.90;;;;;;5042933;28;20041;-72
2023/05/12 04:11:59;;;;;;;56.17;26.33;;;11.20;99.90;;;;;;5042155;28;20337;-72
2023/05/12 04:14:24;;;;;;;62.20;25.30;;;11.20;99.90;;;;;;5033743;28;20688;-72
2023/05/12 04:16:50;;;;;;;61.73;26.00;;;11.20;99.90;;;;;;5049998;28;20418;-72
2023/05/12 04:19:16;;;;;;;62.23;26.37;;;11.30;99.90;;;;;;5042723;28;20073;-72
2023/05/12 04:21:41;;;;;;;64.07;26.30;;;11.30;99.90;;;;;;5029919;28;20390;-72
2023/05/12 04:24:07;;;;;;;69.73;28.07;;;11.40;99.90;;;;;;5044769;28;20041;-72
2023/05/12 04:26:33;;;;;;;65.70;27.67;;;11.40;99.90;;;;;;5020102;28;20041;-72
2023/05/12 04:28:58;;;;;;;61.13;27.13;;;11.40;99.90;;;;;;5050018;28;20098;-72
2023/05/12 04:31:24;;;;;;;53.23;26.80;;;11.50;99.90;;;;;;5029889;28;20045;-72
2023/05/12 04:33:50;;;;;;;61.03;28.20;;;11.50;99.90;;;;;;5032902;28;20465;-72
2023/05/12 04:36:16;;;;;;;63.33;29.03;;;11.50;99.90;;;;;;5032831;28;20440;-72
2023/05/12 04:38:42;;;;;;;69.30;28.97;;;11.50;99.90;;;;;;5050175;28;20286;-71
2023/05/12 04:41:08;;;;;;;70.73;29.63;;;11.60;99.90;;;;;;5032302;28;20037;-71
2023/05/12 04:43:34;;;;;;;67.17;29.07;;;11.60;99.90;;;;;;5040479;28;20084;-71
2023/05/12 04:46:00;;;;;;;66.80;28.27;;;11.60;99.90;;;;;;5028216;28;20038;-71
2023/05/12 04:48:26;;;;;;;70.17;29.37;;;11.60;99.90;;;;;;5032842;28;20389;-71
2023/05/12 04:50:52;;;;;;;65.60;28.40;;;11.60;99.90;;;;;;5031057;28;20290;-71
2023/05/12 04:53:17;;;;;;;64.67;28.97;;;11.70;99.90;;;;;;5034170;28;20284;-71
2023/05/12 04:55:44;;;;;;;63.47;27.60;;;11.70;99.90;;;;;;5017451;28;20099;-71
2023/05/12 04:58:12;;;;;;;65.33;27.23;;;11.70;99.90;;;;;;5019812;28;20029;-71
2023/05/12 05:00:38;;;;;;;59.87;26.80;;;11.80;99.90;;;;;;5030479;28;20786;-71
2023/05/12 05:03:04;;;;;;;69.97;27.50;;;11.80;99.90;;;;;;5019637;28;20292;-71
2023/05/12 05:05:30;;;;;;;68.20;27.83;;;11.80;99.90;;;;;;5030517;28;20435;-71
2023/05/12 05:07:56;;;;;;;61.27;27.50;;;11.90;99.90;;;;;;5043134;28;20295;-71
2023/05/12 05:10:22;;;;;;;67.47;28.10;;;11.90;99.90;;;;;;5047555;28;20041;-71
2023/05/12 05:12:48;;;;;;;65.33;28.80;;;12.00;99.90;;;;;;5024556;28;20285;-71
2023/05/12 05:15:14;;;;;;;56.33;27.20;;;11.90;99.90;;;;;;5031989;28;20291;-71
2023/05/12 05:17:41;;;;;;;57.03;26.73;;;11.90;99.90;;;;;;5049595;28;20434;-71
2023/05/12 05:20:08;;;;;;;58.77;26.40;;;11.90;99.90;;;;;;5021839;28;20128;-71
2023/05/12 05:22:34;;;;;;;61.40;26.90;;;12.00;99.90;;;;;;5046125;28;20314;-71
2023/05/12 05:24:59;;;;;;;58.57;26.97;;;12.00;99.90;;;;;;5021939;28;20839;-71
2023/05/12 05:27:25;;;;;;;60.57;25.87;;;12.00;99.90;;;;;;5048710;28;20045;-71
2023/05/12 05:29:51;;;;;;;55.40;26.70;;;12.00;99.90;;;;;;5028485;28;20029;-71
2023/05/12 05:32:17;;;;;;;58.67;26.03;;;12.10;99.90;;;;;;5039189;28;20276;-71
2023/05/12 05:34:43;;;;;;;56.23;27.87;;;12.10;99.90;;;;;;5046083;28;20106;-71
2023/05/12 05:37:08;;;;;;;56.10;26.87;;;12.10;99.90;;;;;;5028598;28;20088;-71
2023/05/12 05:39:34;;;;;;;51.20;26.60;;;12.10;99.90;;;;;;5039549;28;20051;-71
2023/05/12 05:42:00;;;;;;;61.60;27.13;;;12.20;99.90;;;;;;5038845;28;20414;-71
2023/05/12 05:44:25;;;;;;;56.60;26.57;;;12.20;99.90;;;;;;5031937;28;20501;-71
2023/05/12 05:46:51;;;;;;;58.43;26.43;;;12.30;99.90;;;;;;5044334;28;20184;-71
2023/05/12 05:49:17;;;;;;;54.90;26.90;;;12.30;99.90;;;;;;5046093;28;21299;-71
2023/05/12 05:51:43;;;;;;;58.27;27.77;;;12.40;99.90;;;;;;5029888;28;20098;-71
2023/05/12 05:54:08;;;;;;;53.83;27.67;;;12.40;99.90;;;;;;5044135;28;20067;-71
2023/05/12 05:56:34;;;;;;;57.70;26.77;;;12.40;99.90;;;;;;5031787;28;20037;-71
2023/05/12 05:59:03;;;;;;;54.23;26.60;;;12.50;99.90;;;;;;5045014;28;20075;-71
2023/05/12 06:01:29;;;;;;;53.73;26.30;;;12.50;99.90;;;;;;5022610;28;20779;-71
2023/05/12 06:03:55;;;;;;;58.97;26.57;;;12.50;99.90;;;;;;5046771;28;20303;-71
2023/05/12 06:06:20;;;;;;;55.13;26.57;;;12.50;99.90;;;;;;5048404;28;20374;-71
2023/05/12 06:08:46;;;;;;;56.33;26.77;;;12.60;99.90;;;;;;5021474;28;20074;-71
2023/05/12 06:11:12;;;;;;;51.47;25.83;;;12.60;99.90;;;;;;5030525;28;20048;-71
2023/05/12 06:13:38;;;;;;;53.20;26.30;;;12.70;99.90;;;;;;5020964;28;20054;-71
2023/05/12 06:16:04;;;;;;;51.77;26.73;;;12.70;99.90;;;;;;5031371;28;20413;-71
2023/05/12 06:18:32;;;;;;;50.73;26.50;;;12.80;99.90;;;;;;5026466;28;20036;-71
2023/05/12 06:20:58;;;;;;;56.57;27.57;;;12.80;99.90;;;;;;5030407;28;20291;-71
2023/05/12 06:23:24;;;;;;;52.17;26.93;;;12.90;99.90;;;;;;5018157;28;20369;-71
2023/05/12 06:25:50;;;;;;;52.23;26.03;;;12.90;99.90;;;;;;5043315;28;20287;-71
2023/05/12 06:28:16;;;;;;;48.27;26.33;;;12.90;99.90;;;;;;5039429;28;20440;-71
2023/05/12 06:30:41;;;;;;;53.03;26.10;;;13.00;99.90;;;;;;5030508;28;20041;-71
2023/05/12 06:33:07;;;;;;;50.70;26.30;;;13.00;99.90;;;;;;5037754;28;20032;-71
2023/05/12 06:35:33;;;;;;;51.17;26.40;;;13.00;99.90;;;;;;5023844;28;20037;-71
2023/05/12 06:37:58;;;;;;;50.53;26.43;;;13.10;99.90;;;;;;5047578;28;20037;-71
2023/05/12 06:40:24;;;;;;;47.20;26.03;;;13.10;99.90;;;;;;5024923;28;20056;-72
2023/05/12 06:42:50;;;;;;;52.00;27.53;;;13.10;99.90;;;;;;5037912;28;20084;-72
2023/05/12 06:45:16;;;;;;;45.83;25.33;;;13.10;99.90;;;;;;5040674;28;20037;-72
2023/05/12 06:47:42;;;;;;;44.63;25.80;;;13.10;99.90;;;;;;5029950;28;20130;-72
2023/05/12 06:50:08;;;;;;;45.57;25.50;;;13.10;99.90;;;;;;5029063;28;20033;-74
2023/05/12 06:52:34;;;;;;;45.27;25.67;;;13.20;99.90;;;;;;5027886;28;20041;-74
2023/05/12 06:55:00;;;;;;;43.47;25.97;;;13.20;99.90;;;;;;5016823;28;20490;-74
2023/05/12 06:57:25;;;;;;;45.80;24.63;;;13.20;99.90;;;;;;5021008;28;20329;-74
2023/05/12 06:59:51;;;;;;;47.20;25.50;;;13.30;99.90;;;;;;5047071;28;20073;-74
2023/05/12 07:02:17;;;;;;;45.70;25.43;;;13.40;99.90;;;;;;5025254;28;20414;-74
2023/05/12 07:04:42;;;;;;;43.73;26.07;;;13.50;99.90;;;;;;5030443;28;20099;-74
2023/05/12 07:07:08;;;;;;;41.23;23.97;;;13.50;99.90;;;;;;5021201;28;20095;-74
2023/05/12 07:09:34;;;;;;;47.50;26.00;;;13.60;99.90;;;;;;5046911;28;20037;-74
2023/05/12 07:12:00;;;;;;;44.73;26.13;;;13.60;99.90;;;;;;5030671;28;20130;-74
2023/05/12 07:14:26;;;;;;;44.93;24.67;;;13.80;99.90;;;;;;5030644;28;20040;-74
2023/05/12 07:16:51;;;;;;;43.30;24.87;;;13.90;99.90;;;;;;5045371;28;20056;-74
2023/05/12 07:19:17;;;;;;;40.93;24.37;;;14.10;99.90;;;;;;5038821;28;20037;-74
2023/05/12 07:21:43;;;;;;;41.13;24.30;;;14.30;99.90;;;;;;5037857;28;20174;-74
2023/05/12 07:24:09;;;;;;;43.77;24.90;;;14.40;99.90;;;;;;5030479;28;20037;-74
2023/05/12 07:26:35;;;;;;;41.90;23.63;;;14.50;99.90;;;;;;5028407;28;20052;-74
2023/05/12 07:29:02;;;;;;;36.30;22.63;;;14.70;99.90;;;;;;5018265;28;20493;-74
2023/05/12 07:31:28;;;;;;;38.63;22.83;;;14.70;99.90;;;;;;5056924;28;20848;-74
2023/05/12 07:33:54;;;;;;;34.50;22.23;;;14.70;99.90;;;;;;5046816;28;20370;-74
2023/05/12 07:36:23;;;;;;;33.30;21.40;;;14.80;99.90;;;;;;5046572;28;20033;-74
2023/05/12 07:38:48;;;;;;;34.40;22.07;;;14.90;99.90;;;;;;5043362;28;20493;-74
2023/05/12 07:41:14;;;;;;;31.33;20.93;;;14.90;99.90;;;;;;5027731;28;20302;-74
2023/05/12 07:43:40;;;;;;;32.33;21.37;;;15.10;99.90;;;;;;5029080;28;20580;-74
2023/05/12 07:46:05;;;;;;;32.70;20.97;;;15.10;99.90;;;;;;5046290;28;20132;-74
2023/05/12 07:48:31;;;;;;;31.77;20.60;;;15.30;99.90;;;;;;5029897;28;20079;-74
2023/05/12 07:50:57;;;;;;;31.90;20.97;;;15.30;99.90;;;;;;5046115;28;20417;-74
2023/05/12 07:53:22;;;;;;;32.40;19.97;;;15.40;99.90;;;;;;5027756;28;20548;-74
2023/05/12 07:55:48;;;;;;;34.03;20.70;;;15.40;99.90;;;;;;5043278;28;20471;-74
2023/05/12 07:58:14;;;;;;;30.47;20.73;;;15.40;99.90;;;;;;5046298;28;20255;-74
2023/05/12 08:00:40;;;;;;;31.10;21.07;;;15.40;99.90;;;;;;5029161;28;20379;-74
2023/05/12 08:03:06;;;;;;;26.90;20.50;;;15.40;99.90;;;;;;5045804;28;20534;-74
2023/05/12 08:05:32;;;;;;;27.67;19.97;;;15.40;99.90;;;;;;5026465;28;20033;-74
2023/05/12 08:07:58;;;;;;;30.93;19.60;;;15.40;99.90;;;;;;5041866;28;20284;-74
2023/05/12 08:10:28;;;;;;;27.60;20.27;;;15.50;99.90;;;;;;5045694;28;20299;-74
2023/05/12 08:12:54;;;;;;;29.20;20.43;;;15.50;99.90;;;;;;5049954;28;20098;-74
2023/05/12 08:15:20;;;;;;;27.93;19.90;;;15.60;99.90;;;;;;5032890;28;20287;-74
2023/05/12 08:17:45;;;;;;;28.60;19.87;;;15.60;99.90;;;;;;5032430;28;20048;-74
2023/05/12 08:20:11;;;;;;;25.47;19.77;;;15.60;99.90;;;;;;5030204;28;20053;-75
2023/05/12 08:22:38;;;;;;;29.47;20.07;;;15.60;99.90;;;;;;5044015;28;20063;-74
2023/05/12 08:25:05;;;;;;;32.50;19.47;;;15.70;99.90;;;;;;5045302;28;20045;-74
2023/05/12 08:27:30;;;;;;;28.03;20.07;;;15.70;99.90;;;;;;5049753;28;20284;-74
2023/05/12 08:29:56;;;;;;;26.97;18.77;;;15.70;99.90;;;;;;5039947;28;20719;-74
2023/05/12 08:32:22;;;;;;;27.67;18.97;;;15.80;99.90;;;;;;5028287;28;20037;-74
2023/05/12 08:34:47;;;;;;;27.70;20.10;;;15.80;99.90;;;;;;5048490;28;20075;-74
2023/05/12 08:37:13;;;;;;;31.90;20.90;;;15.90;99.90;;;;;;5049301;28;20714;-74
2023/05/12 08:39:39;;;;;;;28.33;20.03;;;15.90;99.90;;;;;;5039969;28;20500;-74
2023/05/12 08:42:17;;;;;;;25.73;20.07;;;16.00;99.90;;;;;;5032674;28;20045;-75
2023/05/12 08:44:43;;;;;;;25.27;19.70;;;16.10;99.90;;;;;;5045477;28;20361;-74
2023/05/12 08:47:11;;;;;;;26.37;20.37;;;16.30;99.90;;;;;;5046451;28;20703;-74
2023/05/12 08:49:38;;;;;;;29.40;19.90;;;16.50;99.90;;;;;;5049533;28;21123;-74
2023/05/12 08:52:06;;;;;;;27.13;21.10;;;16.60;99.90;;;;;;5031126;28;20311;-74
2023/05/12 08:54:32;;;;;;;28.00;20.43;;;16.90;99.90;;;;;;5030696;28;20348;-74
2023/05/12 08:56:59;;;;;;;31.13;21.37;;;17.00;99.90;;;;;;5047713;28;20295;-74
2023/05/12 08:59:25;;;;;;;26.70;19.13;;;17.30;99.90;;;;;;5031694;28;20059;-74
2023/05/12 09:01:53;;;;;;;28.57;21.50;;;17.50;99.90;;;;;;5028786;28;20288;-74
2023/05/12 09:04:19;;;;;;;25.67;19.33;;;17.70;99.90;;;;;;5027752;28;20041;-74
2023/05/12 09:06:45;;;;;;;25.27;19.70;;;17.90;99.90;;;;;;5044117;28;20850;-74
2023/05/12 09:09:14;;;;;;;25.47;18.90;;;18.10;99.90;;;;;;5044989;28;20091;-75
2023/05/12 09:11:42;;;;;;;28.20;20.47;;;18.40;99.90;;;;;;5031881;28;20291;-74
2023/05/12 09:14:13;;;;;;;24.97;18.60;;;18.50;99.90;;;;;;5026647;28;20548;-74
2023/05/12 09:16:44;;;;;;;23.70;18.30;;;18.70;99.90;;;;;;5029559;28;20041;-74
2023/05/12 09:19:10;;;;;;;23.13;17.03;;;18.90;99.90;;;;;;5031855;28;20040;-74
2023/05/12 09:21:36;;;;;;;20.87;15.57;;;19.10;99.90;;;;;;5026151;28;20416;-74
2023/05/12 09:24:05;;;;;;;22.43;17.60;;;19.30;99.90;;;;;;5024889;28;20038;-74
2023/05/12 09:26:44;;;;;;;21.73;16.77;;;19.40;99.90;;;;;;5042023;28;20045;-74
2023/05/12 09:29:11;;;;;;;22.60;16.73;;;19.50;99.90;;;;;;5023947;28;20365;-74
2023/05/12 09:31:36;;;;;;;19.57;16.47;;;19.50;99.90;;;;;;5038868;28;20128;-74
2023/05/12 09:34:09;;;;;;;20.00;16.10;;;19.60;99.90;;;;;;5028479;28;20048;-74
2023/05/12 09:36:35;;;;;;;21.10;17.57;;;19.60;99.90;;;;;;5022299;28;20041;-74
2023/05/12 09:39:06;;;;;;;22.83;17.73;;;19.60;99.90;;;;;;5017807;28;20044;-74
2023/05/12 09:41:39;;;;;;;22.47;17.50;;;19.70;99.90;;;;;;5046829;28;20064;-74
2023/05/12 09:44:07;;;;;;;22.57;17.30;;;19.70;99.90;;;;;;5029479;28;20056;-74
2023/05/12 09:46:33;;;;;;;22.80;18.43;;;19.80;99.90;;;;;;5025910;28;20037;-74
2023/05/12 09:48:59;;;;;;;22.83;18.33;;;19.80;99.90;;;;;;5047835;28;20047;-75
2023/05/12 09:51:26;;;;;;;25.00;18.53;;;19.90;99.90;;;;;;5032362;28;20245;-75
2023/05/12 09:53:52;;;;;;;23.73;19.13;;;20.00;99.90;;;;;;5045455;28;20047;-74
2023/05/12 09:56:18;;;;;;;22.53;17.80;;;20.10;99.90;;;;;;5026730;28;20041;-74
2023/05/12 09:58:46;;;;;;;26.33;19.63;;;20.20;99.90;;;;;;5030540;28;20412;-74
2023/05/12 10:01:13;;;;;;;22.70;19.07;;;20.20;99.90;;;;;;5030150;28;20301;-74
2023/05/12 10:03:46;;;;;;;23.07;19.63;;;20.30;99.90;;;;;;5046866;28;20051;-74
2023/05/12 10:06:27;;;;;;;21.93;19.23;;;20.30;99.90;;;;;;5048322;28;20044;-74
2023/05/12 10:09:20;;;;;;;21.07;18.53;;;20.30;99.90;;;;;;5028462;28;20531;-74
2023/05/12 10:11:47;;;;;;;20.90;17.40;;;20.40;99.90;;;;;;5031323;28;20512;-72
2023/05/12 10:14:13;;;;;;;22.53;19.17;;;20.40;99.90;;;;;;5024316;28;20041;-72
2023/05/12 10:16:40;;;;;;;22.07;19.77;;;20.50;99.90;;;;;;5048221;28;20045;-72
2023/05/12 10:19:07;;;;;;;26.27;19.80;;;20.60;99.90;;;;;;5047054;28;20052;-72
2023/05/12 10:21:34;;;;;;;23.73;19.43;;;20.80;99.90;;;;;;5040147;28;20055;-72
2023/05/12 10:24:02;;;;;;;22.23;19.83;;;20.90;99.90;;;;;;5023446;28;20099;-73
2023/05/12 10:26:30;;;;;;;20.83;17.53;;;21.00;99.90;;;;;;5042034;28;20048;-73
2023/05/12 10:28:57;;;;;;;22.73;18.87;;;21.00;99.90;;;;;;5022900;28;20311;-72
2023/05/12 10:31:23;;;;;;;22.53;19.60;;;21.00;99.90;;;;;;5035362;28;20083;-72
2023/05/12 10:33:59;;;;;;;21.33;17.80;;;21.00;99.90;;;;;;5029817;28;20041;-73
2023/05/12 10:36:25;;;;;;;20.40;17.43;;;20.90;99.90;;;;;;5047154;28;20497;-73
2023/05/12 10:38:51;;;;;;;18.33;16.30;;;20.90;99.90;;;;;;5047428;28;20071;-72
2023/05/12 10:41:28;;;;;;;20.33;17.03;;;20.90;99.90;;;;;;5044123;28;20042;-72
2023/05/12 10:43:54;;;;;;;21.30;18.13;;;21.00;99.90;;;;;;5034578;28;20053;-72
2023/05/12 10:46:21;;;;;;;22.90;17.80;;;21.10;99.90;;;;;;5026589;28;20036;-72
2023/05/12 10:49:02;;;;;;;22.07;19.20;;;21.30;99.90;;;;;;5047841;28;20489;-72
2023/05/12 10:51:33;;;;;;;19.10;16.03;;;21.30;99.90;;;;;;5015687;28;20030;-72
2023/05/12 10:54:08;;;;;;;19.80;16.67;;;21.40;99.90;;;;;;5025639;28;20652;-74
2023/05/12 10:56:37;;;;;;;18.47;16.47;;;21.40;99.90;;;;;;5029029;28;20702;-72
2023/05/12 10:59:20;;;;;;;17.33;14.53;;;21.40;99.90;;;;;;5045214;28;20065;-72
2023/05/12 11:02:04;;;;;;;16.00;14.37;;;21.40;99.90;;;;;;5021188;28;20045;-72
2023/05/12 11:04:39;;;;;;;16.23;12.90;;;21.50;99.90;;;;;;5047130;28;20117;-72
2023/05/12 11:07:06;;;;;;;14.97;13.37;;;21.60;99.90;;;;;;5028511;28;20447;-72
2023/05/12 11:09:35;;;;;;;16.20;13.53;;;21.70;99.90;;;;;;5022279;28;20129;-72
2023/05/12 11:12:01;;;;;;;16.17;13.43;;;21.90;99.90;;;;;;5021257;28;20028;-72
2023/05/12 11:14:26;;;;;;;15.63;13.60;;;22.00;99.90;;;;;;5047696;28;20049;-72
2023/05/12 11:16:52;;;;;;;17.03;14.17;;;22.00;99.90;;;;;;5045049;28;20397;-72
2023/05/12 11:19:18;;;;;;;14.73;12.30;;;22.00;99.90;;;;;;5038739;28;20107;-72
2023/05/12 11:21:43;;;;;;;15.43;13.50;;;22.00;99.90;;;;;;5045478;28;20404;-73
2023/05/12 11:24:10;;;;;;;14.40;12.90;;;22.10;99.90;;;;;;5029974;28;20049;-73
2023/05/12 11:26:38;;;;;;;16.37;12.53;;;22.20;99.90;;;;;;5041968;28;20094;-73
2023/05/12 11:29:04;;;;;;;13.47;11.57;;;22.30;99.90;;;;;;5029261;28;20419;-73
2023/05/12 11:31:30;;;;;;;12.37;11.00;;;22.40;99.90;;;;;;5045868;28;20037;-72
2023/05/12 11:34:03;;;;;;;12.90;11.60;;;22.50;99.90;;;;;;5039075;28;20049;-73
2023/05/12 11:36:36;;;;;;;15.23;12.47;;;22.60;99.90;;;;;;5026237;28;20055;-72
2023/05/12 11:39:02;;;;;;;16.87;13.40;;;22.70;99.90;;;;;;5030628;28;20056;-72
2023/05/12 11:41:28;;;;;;;14.40;12.93;;;22.70;99.90;;;;;;5045150;28;20128;-72
2023/05/12 11:43:53;;;;;;;15.40;12.23;;;22.70;99.90;;;;;;5020758;28;20124;-74
2023/05/12 11:46:24;;;;;;;15.67;12.33;;;22.50;99.90;;;;;;5045136;28;20064;-74
2023/05/12 11:48:57;;;;;;;15.37;12.67;;;22.50;95.80;;;;;;5032852;28;20040;-74
2023/05/12 11:51:24;;;;;;;14.93;11.00;;;22.40;91.20;;;;;;5049889;28;20072;-73
2023/05/12 11:53:52;;;;;;;14.10;12.20;;;22.40;99.60;;;;;;5046375;28;20772;-73
2023/05/12 11:56:20;;;;;;;14.43;11.83;;;22.50;93.70;;;;;;5030547;28;20055;-73
2023/05/12 11:58:57;;;;;;;13.10;11.03;;;22.50;93.90;;;;;;5048914;28;20098;-73
2023/05/12 12:01:24;;;;;;;11.23;9.63;;;22.50;93.00;;;;;;5025323;28;20060;-75
2023/05/12 12:03:52;;;;;;;9.47;7.73;;;22.50;92.70;;;;;;5049962;28;20072;-74
2023/05/12 12:06:20;;;;;;;9.87;7.63;;;22.50;91.00;;;;;;5037373;28;20047;-74
2023/05/12 12:08:58;;;;;;;8.50;7.10;;;22.60;90.30;;;;;;5051359;28;20075;-74
2023/05/12 12:11:29;;;;;;;9.07;7.33;;;22.70;83.90;;;;;;5052575;28;20252;-74
2023/05/12 12:13:56;;;;;;;7.60;6.87;;;22.70;74.10;;;;;;5039507;28;20052;-74
2023/05/12 12:16:26;;;;;;;10.10;6.83;;;22.70;75.30;;;;;;5047226;28;20043;-74
2023/05/12 12:18:52;;;;;;;8.10;6.10;;;22.70;72.50;;;;;;5035171;28;20063;-74
2023/05/12 12:21:19;;;;;;;9.60;8.60;;;22.70;73.50;;;;;;5044052;28;20041;-74
2023/05/12 12:23:45;;;;;;;7.97;7.17;;;22.70;72.00;;;;;;5034185;28;20048;-74
2023/05/12 12:26:11;;;;;;;9.77;8.20;;;22.70;73.00;;;;;;5030328;28;20132;-74